EGJB

Guernsey Airport

Saint Peter Port, Guernsey
TAF EGJB 222301Z 2300/2309 09016KT 9999 SCT025 PROB30 TEMPO 2305/2309 7000
Issued Valid From Valid To
Feb-22 @ 23:01 UTC
(an hour ago)
Feb-23 @ 00:00 UTC
(6 minutes ago)
Feb-23 @ 09:00 UTC
(in 9 hours)
Feb-23 @ 00:00 -Feb-23 @ 09:00
Wind Visibility Clouds
90° at 16 knots 10,000+ meters
  • Scattered at 2,500' AGL
Probability 30% Temporary Feb-23 @ 05:00 -Feb-23 @ 09:00
Visibility
7,001 meters
TAF EGJB 222301Z 2300/2309 09016KT 9999 SCT025 PROB30 TEMPO 2305/2309 7000
Issued Feb-22 @ 23:01 UTC
(an hour ago)
Valid From Feb-23 @ 00:00 UTC
(6 minutes ago)
Valid To Feb-23 @ 09:00 UTC
(in 9 hours)
Feb-23 @ 00:00 - Feb-23 @ 09:00
Wind Visibility
90° at 16 knots 10,000+ meters
Clouds
  • Scattered at 2,500' AGL
Probability 30% Temporary Feb-23 @ 05:00 - Feb-23 @ 09:00